LDG27 EGHH-EGTK
Flight info
| Callsign | LDG27 |
|---|---|
| Flight time | 0h 40m |
| Altitude | 9000 |
| Route | SAM Q41 PEPIS Y321 CPT N859 KIDLI DCT OX |
| Aircraft | DA42/L-SBDGRY/SB2 |
Departure
| Time | 2026-04-29 16:46 |
|---|---|
| Airport | Bournemouth Airport (EGHH) |
Arrival
| Time | 2026-04-29 17:26 |
|---|---|
| Airport | London Oxford Airport (EGTK) |
| Time | Latitude | Longitude | Altitude | Speed | Heading |
|---|---|---|---|---|---|
| 2026-04-29 16:29 | 50.78605 | -1.84047 | 9 ft | 0 kts | 185° |
| 2026-04-29 16:41 | 50.78602 | -1.84048 | 9 ft | 2 kts | 199° |
| 2026-04-29 16:41 | 50.78556 | -1.84096 | 37 ft | 13 kts | 175° |
| 2026-04-29 16:41 | 50.78470 | -1.84093 | 38 ft | 14 kts | 221° |
| 2026-04-29 16:41 | 50.78395 | -1.84233 | 38 ft | 20 kts | 238° |
| 2026-04-29 16:42 | 50.78327 | -1.84424 | 38 ft | 22 kts | 246° |
| 2026-04-29 16:42 | 50.78222 | -1.84631 | 38 ft | 26 kts | 215° |
| 2026-04-29 16:42 | 50.78139 | -1.84743 | 39 ft | 16 kts | 242° |
| 2026-04-29 16:42 | 50.78100 | -1.84906 | 39 ft | 14 kts | 212° |
| 2026-04-29 16:43 | 50.78011 | -1.84959 | 40 ft | 11 kts | 197° |
| 2026-04-29 16:43 | 50.78000 | -1.84965 | 40 ft | 0 kts | 202° |
| 2026-04-29 16:44 | 50.77966 | -1.84985 | 40 ft | 12 kts | 198° |
| 2026-04-29 16:44 | 50.77888 | -1.84989 | 42 ft | 7 kts | 107° |
| 2026-04-29 16:45 | 50.77907 | -1.84843 | 42 ft | 39 kts | 75° |
| 2026-04-29 16:45 | 50.78022 | -1.84221 | 116 ft | 68 kts | 76° |
| 2026-04-29 16:45 | 50.78184 | -1.83462 | 289 ft | 83 kts | 75° |
| 2026-04-29 16:45 | 50.78389 | -1.82585 | 549 ft | 93 kts | 74° |
| 2026-04-29 16:46 | 50.78584 | -1.81617 | 784 ft | 98 kts | 75° |
| 2026-04-29 16:46 | 50.78754 | -1.80567 | 1035 ft | 98 kts | 75° |
| 2026-04-29 16:46 | 50.78901 | -1.79557 | 1284 ft | 97 kts | 75° |
| 2026-04-29 16:46 | 50.79058 | -1.78525 | 1531 ft | 95 kts | 75° |
| 2026-04-29 16:47 | 50.79201 | -1.77534 | 1788 ft | 91 kts | 75° |
| 2026-04-29 16:47 | 50.79342 | -1.76566 | 2040 ft | 91 kts | 76° |
| 2026-04-29 16:47 | 50.79498 | -1.75601 | 2294 ft | 90 kts | 76° |
| 2026-04-29 16:47 | 50.79670 | -1.74692 | 2535 ft | 88 kts | 77° |
| 2026-04-29 16:48 | 50.79873 | -1.73847 | 2802 ft | 82 kts | 75° |
| 2026-04-29 16:48 | 50.80078 | -1.73062 | 3066 ft | 78 kts | 76° |
| 2026-04-29 16:48 | 50.80290 | -1.72294 | 3330 ft | 79 kts | 75° |
| 2026-04-29 16:48 | 50.80513 | -1.71518 | 3595 ft | 80 kts | 75° |
| 2026-04-29 16:49 | 50.80748 | -1.70714 | 3847 ft | 81 kts | 75° |
| 2026-04-29 16:49 | 50.80982 | -1.69924 | 4097 ft | 83 kts | 75° |
| 2026-04-29 16:49 | 50.81237 | -1.69085 | 4352 ft | 88 kts | 70° |
| 2026-04-29 16:49 | 50.81568 | -1.68265 | 4611 ft | 89 kts | 69° |
| 2026-04-29 16:50 | 50.81907 | -1.67443 | 4871 ft | 90 kts | 69° |
| 2026-04-29 16:50 | 50.82252 | -1.66606 | 5115 ft | 91 kts | 69° |
| 2026-04-29 16:50 | 50.82601 | -1.65766 | 5364 ft | 92 kts | 69° |
| 2026-04-29 16:50 | 50.82953 | -1.64917 | 5615 ft | 93 kts | 69° |
| 2026-04-29 16:51 | 50.83307 | -1.64065 | 5872 ft | 92 kts | 69° |
| 2026-04-29 16:51 | 50.83657 | -1.63222 | 6116 ft | 91 kts | 69° |
| 2026-04-29 16:51 | 50.84005 | -1.62386 | 6371 ft | 91 kts | 70° |
| 2026-04-29 16:51 | 50.84352 | -1.61550 | 6623 ft | 91 kts | 70° |
| 2026-04-29 16:52 | 50.84700 | -1.60712 | 6863 ft | 91 kts | 70° |
| 2026-04-29 16:52 | 50.85051 | -1.59864 | 7107 ft | 93 kts | 70° |
| 2026-04-29 16:52 | 50.85405 | -1.59013 | 7350 ft | 93 kts | 70° |
| 2026-04-29 16:52 | 50.85757 | -1.58162 | 7612 ft | 94 kts | 70° |
| 2026-04-29 16:53 | 50.86118 | -1.57293 | 7855 ft | 95 kts | 70° |
| 2026-04-29 16:53 | 50.86479 | -1.56422 | 8105 ft | 95 kts | 70° |
| 2026-04-29 16:53 | 50.86842 | -1.55548 | 8354 ft | 95 kts | 70° |
| 2026-04-29 16:53 | 50.87210 | -1.54647 | 8593 ft | 98 kts | 72° |
| 2026-04-29 16:54 | 50.87693 | -1.53821 | 8845 ft | 111 kts | 47° |
| 2026-04-29 16:54 | 50.88451 | -1.53342 | 9105 ft | 120 kts | 34° |
| 2026-04-29 16:54 | 50.89250 | -1.52933 | 9363 ft | 121 kts | 33° |
| 2026-04-29 16:54 | 50.90055 | -1.52524 | 9624 ft | 122 kts | 33° |
| 2026-04-29 16:55 | 50.90863 | -1.52114 | 9889 ft | 123 kts | 33° |
| 2026-04-29 16:55 | 50.91678 | -1.51699 | 10147 ft | 123 kts | 32° |
| 2026-04-29 16:55 | 50.92499 | -1.51280 | 10382 ft | 124 kts | 32° |
| 2026-04-29 16:55 | 50.93331 | -1.50854 | 10625 ft | 127 kts | 32° |
| 2026-04-29 16:56 | 50.94181 | -1.50419 | 10868 ft | 129 kts | 32° |
| 2026-04-29 16:56 | 50.94751 | -1.50128 | 11029 ft | 130 kts | 32° |
| 2026-04-29 16:56 | 50.95630 | -1.49674 | 11186 ft | 140 kts | 31° |
| 2026-04-29 16:56 | 50.96604 | -1.49164 | 11194 ft | 153 kts | 30° |
| 2026-04-29 16:57 | 50.97608 | -1.48651 | 11189 ft | 159 kts | 29° |
| 2026-04-29 16:57 | 50.98673 | -1.48113 | 11194 ft | 162 kts | 29° |
| 2026-04-29 16:57 | 50.99750 | -1.47566 | 11201 ft | 163 kts | 29° |
| 2026-04-29 16:57 | 51.00839 | -1.47011 | 11190 ft | 165 kts | 29° |
| 2026-04-29 16:58 | 51.01930 | -1.46453 | 11189 ft | 165 kts | 28° |
| 2026-04-29 16:58 | 51.03025 | -1.45892 | 11190 ft | 166 kts | 28° |
| 2026-04-29 16:58 | 51.04124 | -1.45328 | 11198 ft | 166 kts | 28° |
| 2026-04-29 16:58 | 51.05225 | -1.44762 | 11200 ft | 167 kts | 28° |
| 2026-04-29 16:59 | 51.06327 | -1.44197 | 11197 ft | 167 kts | 29° |
| 2026-04-29 16:59 | 51.07436 | -1.43626 | 11191 ft | 167 kts | 28° |
| 2026-04-29 16:59 | 51.08542 | -1.43058 | 11197 ft | 166 kts | 28° |
| 2026-04-29 16:59 | 51.09639 | -1.42494 | 11193 ft | 166 kts | 28° |
| 2026-04-29 17:00 | 51.10737 | -1.41929 | 11180 ft | 166 kts | 29° |
| 2026-04-29 17:00 | 51.11838 | -1.41362 | 11175 ft | 166 kts | 28° |
| 2026-04-29 17:00 | 51.12935 | -1.40797 | 11176 ft | 166 kts | 29° |
| 2026-04-29 17:00 | 51.14034 | -1.40230 | 11180 ft | 166 kts | 29° |
| 2026-04-29 17:01 | 51.15133 | -1.39663 | 11187 ft | 166 kts | 28° |
| 2026-04-29 17:01 | 51.16232 | -1.39096 | 11189 ft | 166 kts | 28° |
| 2026-04-29 17:01 | 51.17330 | -1.38528 | 11182 ft | 166 kts | 28° |
| 2026-04-29 17:01 | 51.18434 | -1.37959 | 11188 ft | 167 kts | 29° |
| 2026-04-29 17:02 | 51.19538 | -1.37388 | 11187 ft | 167 kts | 29° |
| 2026-04-29 17:02 | 51.20640 | -1.36818 | 11185 ft | 166 kts | 28° |
| 2026-04-29 17:02 | 51.21742 | -1.36247 | 11183 ft | 167 kts | 28° |
| 2026-04-29 17:02 | 51.22847 | -1.35676 | 11180 ft | 167 kts | 28° |
| 2026-04-29 17:03 | 51.23978 | -1.35190 | 11177 ft | 174 kts | 17° |
| 2026-04-29 17:03 | 51.25193 | -1.35058 | 11186 ft | 176 kts | 12° |
| 2026-04-29 17:03 | 51.26419 | -1.35010 | 11187 ft | 176 kts | 11° |
| 2026-04-29 17:03 | 51.27641 | -1.34965 | 11187 ft | 176 kts | 11° |
| 2026-04-29 17:04 | 51.28864 | -1.34912 | 11188 ft | 176 kts | 11° |
| 2026-04-29 17:04 | 51.30087 | -1.34855 | 11188 ft | 176 kts | 12° |
| 2026-04-29 17:04 | 51.31309 | -1.34797 | 11189 ft | 175 kts | 12° |
| 2026-04-29 17:04 | 51.32526 | -1.34739 | 11184 ft | 175 kts | 11° |
| 2026-04-29 17:05 | 51.33742 | -1.34684 | 11209 ft | 174 kts | 10° |
| 2026-04-29 17:05 | 51.34945 | -1.34629 | 11210 ft | 173 kts | 11° |
| 2026-04-29 17:05 | 51.36142 | -1.34561 | 11212 ft | 172 kts | 12° |
| 2026-04-29 17:05 | 51.37337 | -1.34487 | 11214 ft | 172 kts | 11° |
| 2026-04-29 17:06 | 51.38536 | -1.34426 | 11211 ft | 172 kts | 11° |
| 2026-04-29 17:06 | 51.39737 | -1.34370 | 11193 ft | 174 kts | 11° |
| 2026-04-29 17:06 | 51.40977 | -1.34308 | 11001 ft | 182 kts | 11° |
| 2026-04-29 17:06 | 51.42260 | -1.34247 | 10759 ft | 186 kts | 10° |
| 2026-04-29 17:07 | 51.43538 | -1.34192 | 10529 ft | 187 kts | 10° |
| 2026-04-29 17:07 | 51.44837 | -1.34136 | 10290 ft | 187 kts | 10° |
| 2026-04-29 17:07 | 51.46137 | -1.34075 | 10052 ft | 187 kts | 10° |
| 2026-04-29 17:07 | 51.47439 | -1.34016 | 9788 ft | 187 kts | 10° |
| 2026-04-29 17:08 | 51.48734 | -1.33956 | 9525 ft | 187 kts | 10° |
| 2026-04-29 17:08 | 51.50031 | -1.33896 | 9262 ft | 186 kts | 10° |
| 2026-04-29 17:08 | 51.51291 | -1.33844 | 9236 ft | 174 kts | 11° |
| 2026-04-29 17:08 | 51.52475 | -1.33792 | 9239 ft | 167 kts | 12° |
| 2026-04-29 17:09 | 51.53619 | -1.33737 | 9239 ft | 162 kts | 12° |
| 2026-04-29 17:09 | 51.54739 | -1.33682 | 9190 ft | 162 kts | 12° |
| 2026-04-29 17:09 | 51.55901 | -1.33620 | 8977 ft | 171 kts | 11° |
| 2026-04-29 17:09 | 51.57104 | -1.33561 | 8743 ft | 174 kts | 11° |
| 2026-04-29 17:10 | 51.58317 | -1.33510 | 8516 ft | 175 kts | 11° |
| 2026-04-29 17:10 | 51.59533 | -1.33455 | 8283 ft | 175 kts | 11° |
| 2026-04-29 17:10 | 51.60750 | -1.33400 | 8052 ft | 175 kts | 11° |
| 2026-04-29 17:10 | 51.61966 | -1.33343 | 7820 ft | 175 kts | 11° |
| 2026-04-29 17:11 | 51.63180 | -1.33287 | 7591 ft | 175 kts | 11° |
| 2026-04-29 17:11 | 51.64391 | -1.33232 | 7358 ft | 174 kts | 11° |
| 2026-04-29 17:11 | 51.65618 | -1.33171 | 6960 ft | 180 kts | 11° |
| 2026-04-29 17:11 | 51.66841 | -1.33117 | 6646 ft | 173 kts | 11° |
| 2026-04-29 17:12 | 51.68030 | -1.33064 | 6409 ft | 169 kts | 12° |
| 2026-04-29 17:12 | 51.69200 | -1.33010 | 6185 ft | 167 kts | 12° |
| 2026-04-29 17:12 | 51.70350 | -1.32955 | 5965 ft | 165 kts | 13° |
| 2026-04-29 17:12 | 51.71106 | -1.32919 | 5821 ft | 164 kts | 13° |
| 2026-04-29 17:13 | 51.72624 | -1.32848 | 5530 ft | 163 kts | 13° |
| 2026-04-29 17:13 | 51.73753 | -1.32795 | 5316 ft | 162 kts | 13° |
| 2026-04-29 17:13 | 51.74873 | -1.32743 | 5102 ft | 161 kts | 14° |
| 2026-04-29 17:13 | 51.75990 | -1.32691 | 4883 ft | 160 kts | 14° |
| 2026-04-29 17:14 | 51.77097 | -1.32639 | 4675 ft | 158 kts | 14° |
| 2026-04-29 17:14 | 51.78196 | -1.32588 | 4459 ft | 158 kts | 14° |
| 2026-04-29 17:14 | 51.79285 | -1.32538 | 4253 ft | 155 kts | 15° |
| 2026-04-29 17:14 | 51.80344 | -1.32489 | 4031 ft | 153 kts | 15° |
| 2026-04-29 17:15 | 51.81413 | -1.32442 | 3845 ft | 150 kts | 14° |
| 2026-04-29 17:15 | 51.82437 | -1.32392 | 3646 ft | 149 kts | 14° |
| 2026-04-29 17:15 | 51.83466 | -1.32353 | 3451 ft | 148 kts | 11° |
| 2026-04-29 17:15 | 51.84476 | -1.32389 | 3315 ft | 143 kts | 12° |
| 2026-04-29 17:16 | 51.85466 | -1.32411 | 3171 ft | 142 kts | 12° |
| 2026-04-29 17:16 | 51.86447 | -1.32437 | 3029 ft | 140 kts | 11° |
| 2026-04-29 17:16 | 51.87416 | -1.32464 | 2887 ft | 139 kts | 10° |
| 2026-04-29 17:16 | 51.88368 | -1.32491 | 2748 ft | 135 kts | 10° |
| 2026-04-29 17:17 | 51.89296 | -1.32518 | 2617 ft | 132 kts | 10° |
| 2026-04-29 17:17 | 51.90212 | -1.32541 | 2488 ft | 132 kts | 10° |
| 2026-04-29 17:17 | 51.91134 | -1.32568 | 2354 ft | 134 kts | 9° |
| 2026-04-29 17:17 | 51.92055 | -1.32597 | 2216 ft | 127 kts | 11° |
| 2026-04-29 17:18 | 51.92914 | -1.32625 | 2093 ft | 120 kts | 12° |
| 2026-04-29 17:18 | 51.93725 | -1.32649 | 1983 ft | 114 kts | 12° |
| 2026-04-29 17:18 | 51.94524 | -1.32666 | 1869 ft | 116 kts | 13° |
| 2026-04-29 17:18 | 51.95342 | -1.32685 | 1795 ft | 117 kts | 12° |
| 2026-04-29 17:19 | 51.96148 | -1.32710 | 1796 ft | 115 kts | 13° |
| 2026-04-29 17:19 | 51.96932 | -1.32659 | 1794 ft | 108 kts | 26° |
| 2026-04-29 17:19 | 51.97554 | -1.32136 | 1793 ft | 96 kts | 51° |
| 2026-04-29 17:19 | 51.97923 | -1.31293 | 1800 ft | 90 kts | 70° |
| 2026-04-29 17:20 | 51.98028 | -1.30307 | 1802 ft | 89 kts | 89° |
| 2026-04-29 17:20 | 51.97869 | -1.29350 | 1805 ft | 91 kts | 109° |
| 2026-04-29 17:20 | 51.97436 | -1.28532 | 1804 ft | 101 kts | 131° |
| 2026-04-29 17:20 | 51.96749 | -1.28104 | 1798 ft | 115 kts | 160° |
| 2026-04-29 17:21 | 51.95925 | -1.28245 | 1801 ft | 124 kts | 177° |
| 2026-04-29 17:21 | 51.95059 | -1.28516 | 1797 ft | 125 kts | 178° |
| 2026-04-29 17:21 | 51.94215 | -1.28784 | 1799 ft | 122 kts | 178° |
| 2026-04-29 17:21 | 51.93383 | -1.29040 | 1800 ft | 121 kts | 177° |
| 2026-04-29 17:22 | 51.92560 | -1.29289 | 1795 ft | 123 kts | 177° |
| 2026-04-29 17:22 | 51.91725 | -1.29545 | 1754 ft | 123 kts | 177° |
| 2026-04-29 17:22 | 51.90860 | -1.29808 | 1591 ft | 126 kts | 178° |
| 2026-04-29 17:22 | 51.90047 | -1.30063 | 1440 ft | 118 kts | 178° |
| 2026-04-29 17:23 | 51.89254 | -1.30301 | 1281 ft | 117 kts | 177° |
| 2026-04-29 17:23 | 51.88448 | -1.30546 | 1109 ft | 118 kts | 180° |
| 2026-04-29 17:23 | 51.87691 | -1.30509 | 1008 ft | 103 kts | 161° |
| 2026-04-29 17:23 | 51.86983 | -1.30368 | 892 ft | 102 kts | 165° |
| 2026-04-29 17:24 | 51.86269 | -1.30260 | 791 ft | 106 kts | 167° |
| 2026-04-29 17:24 | 51.85574 | -1.30054 | 775 ft | 98 kts | 153° |
| 2026-04-29 17:24 | 51.84862 | -1.30130 | 792 ft | 107 kts | 180° |
| 2026-04-29 17:24 | 51.84142 | -1.30391 | 786 ft | 103 kts | 181° |
| 2026-04-29 17:25 | 51.83454 | -1.30679 | 793 ft | 103 kts | 185° |
| 2026-04-29 17:25 | 51.82760 | -1.30984 | 806 ft | 101 kts | 182° |
| 2026-04-29 17:25 | 51.82191 | -1.31680 | 806 ft | 111 kts | 256° |
| 2026-04-29 17:25 | 51.82478 | -1.32630 | 672 ft | 88 kts | 4° |
| 2026-04-29 17:26 | 51.82902 | -1.32271 | 402 ft | 67 kts | 31° |
| 2026-04-29 17:26 | 51.83289 | -1.32145 | 504 ft | 43 kts | 21° |
| 2026-04-29 17:26 | 51.83662 | -1.32009 | 581 ft | 67 kts | 29° |
| 2026-04-29 17:26 | 51.84177 | -1.31888 | 854 ft | 79 kts | 15° |
| 2026-04-29 17:27 | 51.84739 | -1.31890 | 1151 ft | 76 kts | 13° |
| 2026-04-29 17:27 | 51.85257 | -1.31799 | 1343 ft | 73 kts | 51° |
| 2026-04-29 17:27 | 51.85205 | -1.31157 | 1567 ft | 82 kts | 136° |
| 2026-04-29 17:27 | 51.84563 | -1.31060 | 1597 ft | 103 kts | 172° |
| 2026-04-29 17:28 | 51.83881 | -1.31247 | 1640 ft | 97 kts | 175° |
| 2026-04-29 17:28 | 51.83188 | -1.31474 | 1538 ft | 102 kts | 176° |
| 2026-04-29 17:28 | 51.82476 | -1.31588 | 1474 ft | 99 kts | 171° |
| 2026-04-29 17:28 | 51.81789 | -1.31734 | 1335 ft | 106 kts | 179° |
| 2026-04-29 17:29 | 51.81409 | -1.32758 | 1143 ft | 117 kts | 286° |
| 2026-04-29 17:29 | 51.81845 | -1.33584 | 954 ft | 84 kts | 17° |
| 2026-04-29 17:29 | 51.82188 | -1.33001 | 709 ft | 73 kts | 60° |
| 2026-04-29 17:29 | 51.82366 | -1.32584 | 602 ft | 63 kts | 49° |
| 2026-04-29 17:30 | 51.82919 | -1.32222 | 319 ft | 64 kts | 15° |
| 2026-04-29 17:30 | 51.83292 | -1.32107 | 271 ft | 48 kts | 8° |
| 2026-04-29 17:30 | 51.83472 | -1.32063 | 264 ft | 16 kts | 5° |
| 2026-04-29 17:30 | 51.83528 | -1.32047 | 264 ft | 9 kts | 8° |
| 2026-04-29 17:31 | 51.83532 | -1.31989 | 264 ft | 9 kts | 145° |
| 2026-04-29 17:31 | 51.83461 | -1.31920 | 263 ft | 13 kts | 146° |
| 2026-04-29 17:31 | 51.83392 | -1.31853 | 263 ft | 9 kts | 142° |
| 2026-04-29 17:31 | 51.83314 | -1.31763 | 263 ft | 16 kts | 126° |
| 2026-04-29 17:32 | 51.83249 | -1.31642 | 263 ft | 13 kts | 141° |
| 2026-04-29 17:32 | 51.83221 | -1.31552 | 263 ft | 9 kts | 73° |
| 2026-04-29 17:32 | 51.83238 | -1.31468 | 263 ft | 8 kts | 69° |
| 2026-04-29 17:32 | 51.83243 | -1.31379 | 263 ft | 1 kts | 20° |